Pagina principale
METAR-TAF:

METAR-TAF

Aeroporti :

Aeroporto Internazionale di Baghdad

Baghdad, Iraq

latitudine: 33-15-45N, longitudine: 44-14-04E, altezza: 35 m

Osservazione

Il bollettino è stato emesso 53 minuti fa, alle 05:00 UTC
Vento 5 kt da nord-ovest
Temperature 13°C
Umidità 82%
Pressione 1021 hPa
Visibilità 10 km o più
nessuna nube inferiore a 1500 m e nessun cumulonembo

METAR: ORBI 200500Z 31005KT CAVOK 13/10 Q1021 NOSIG

Ora: 08:53 (05:53 UTC)

Previsione

Il bollettino è stato emesso 53 minuti fa, alle 05:00 UTC
Previsione valida dal 20 alle 06 UTC al 21 alle 06 UTC
Vento 7 kt da nord-ovest
Visibilità: 8000 m

TAF: ORBI 200500Z 2006/2106 32007KT 8000 NSC

Osservazioni e previsioni meteorologiche di più di 4000 aeroporti (messaggi METAR e TAF).

Le stazioni disponibili sono rappresentate dai dischi gialli e rossi sulla carta.

Puntare il mouse per vedere il nome della stazione.

Clicca sopra per visualizzare le osservazioni e previsioni meteorologiche.

Per cambiare la mappa : fare clic sui pulsanti verdi con una croce nera per ingrandire, il pulsante verde con un trattino per diminuire, o sulla freccia verde per le mappe adiacenti.


METAR-TAF: